sensor_id;sensor_type;location;lat;lon;timestamp;pressure;altitude;pressure_sealevel;temperature;humidity
84861;BME280;75116;42.644;23.274;2024-03-02T00:00:18;92300.16;;;5.70;83.84
84861;BME280;75116;42.644;23.274;2024-03-02T00:02:48;92303.09;;;5.98;86.15
84861;BME280;75116;42.644;23.274;2024-03-02T00:05:19;92317.81;;;5.81;83.12
84861;BME280;75116;42.644;23.274;2024-03-02T00:07:51;92324.47;;;5.90;85.05
84861;BME280;75116;42.644;23.274;2024-03-02T00:10:20;92330.94;;;5.88;82.67
84861;BME280;75116;42.644;23.274;2024-03-02T00:12:48;92327.47;;;5.37;85.40
84861;BME280;75116;42.644;23.274;2024-03-02T00:15:27;92334.91;;;5.94;86.41
84861;BME280;75116;42.644;23.274;2024-03-02T00:17:58;92336.91;;;6.18;83.51
84861;BME280;75116;42.644;23.274;2024-03-02T00:20:24;92336.91;;;6.47;81.78
84861;BME280;75116;42.644;23.274;2024-03-02T00:23:08;92329.19;;;6.18;82.32
84861;BME280;75116;42.644;23.274;2024-03-02T00:25:38;92334.13;;;6.23;83.33
84861;BME280;75116;42.644;23.274;2024-03-02T00:28:05;92337.84;;;6.13;82.21
84861;BME280;75116;42.644;23.274;2024-03-02T00:33:26;92299.28;;;5.66;82.64
84861;BME280;75116;42.644;23.274;2024-03-02T00:35:53;92321.00;;;5.78;83.76
84861;BME280;75116;42.644;23.274;2024-03-02T00:38:18;92320.69;;;5.79;83.49
84861;BME280;75116;42.644;23.274;2024-03-02T00:40:45;92321.47;;;5.80;84.53
84861;BME280;75116;42.644;23.274;2024-03-02T00:45:54;92311.63;;;5.26;86.60
84861;BME280;75116;42.644;23.274;2024-03-02T00:48:20;92311.25;;;5.54;85.17
84861;BME280;75116;42.644;23.274;2024-03-02T00:50:52;92320.81;;;5.36;86.28
84861;BME280;75116;42.644;23.274;2024-03-02T00:53:23;92312.09;;;5.75;85.29
84861;BME280;75116;42.644;23.274;2024-03-02T00:55:52;92316.19;;;6.44;87.67
84861;BME280;75116;42.644;23.274;2024-03-02T00:58:17;92314.69;;;6.43;84.46
84861;BME280;75116;42.644;23.274;2024-03-02T01:00:43;92311.28;;;6.51;85.11
84861;BME280;75116;42.644;23.274;2024-03-02T01:03:09;92317.69;;;6.65;84.47
84861;BME280;75116;42.644;23.274;2024-03-02T01:05:36;92313.25;;;6.95;82.94
84861;BME280;75116;42.644;23.274;2024-03-02T01:08:02;92308.59;;;6.89;83.46
84861;BME280;75116;42.644;23.274;2024-03-02T01:10:27;92309.00;;;6.91;82.92
84861;BME280;75116;42.644;23.274;2024-03-02T01:12:53;92296.34;;;6.86;83.61
84861;BME280;75116;42.644;23.274;2024-03-02T01:15:18;92304.13;;;6.98;84.15
84861;BME280;75116;42.644;23.274;2024-03-02T01:17:44;92304.78;;;7.07;83.61
84861;BME280;75116;42.644;23.274;2024-03-02T01:20:10;92301.28;;;7.12;83.13
84861;BME280;75116;42.644;23.274;2024-03-02T01:22:36;92289.69;;;7.18;82.16
84861;BME280;75116;42.644;23.274;2024-03-02T01:25:03;92286.84;;;6.99;81.69
84861;BME280;75116;42.644;23.274;2024-03-02T01:27:28;92294.41;;;6.62;83.04
84861;BME280;75116;42.644;23.274;2024-03-02T01:29:54;92295.47;;;6.82;84.35
84861;BME280;75116;42.644;23.274;2024-03-02T01:32:20;92296.72;;;6.97;83.42
84861;BME280;75116;42.644;23.274;2024-03-02T01:34:45;92284.38;;;7.02;81.13
84861;BME280;75116;42.644;23.274;2024-03-02T01:37:11;92274.19;;;7.06;82.81
84861;BME280;75116;42.644;23.274;2024-03-02T01:39:38;92281.44;;;7.12;80.87
84861;BME280;75116;42.644;23.274;2024-03-02T01:42:04;92287.97;;;6.89;83.00
84861;BME280;75116;42.644;23.274;2024-03-02T01:44:30;92275.44;;;7.20;83.52
84861;BME280;75116;42.644;23.274;2024-03-02T01:46:55;92283.44;;;7.07;81.63
84861;BME280;75116;42.644;23.274;2024-03-02T01:49:21;92278.38;;;7.10;82.32
84861;BME280;75116;42.644;23.274;2024-03-02T01:51:47;92284.13;;;7.28;80.17
84861;BME280;75116;42.644;23.274;2024-03-02T01:54:12;92279.94;;;7.23;80.52
84861;BME280;75116;42.644;23.274;2024-03-02T01:56:38;92284.34;;;6.69;81.99
84861;BME280;75116;42.644;23.274;2024-03-02T01:59:03;92285.22;;;6.02;85.79
84861;BME280;75116;42.644;23.274;2024-03-02T02:01:29;92278.03;;;6.46;85.65
84861;BME280;75116;42.644;23.274;2024-03-02T02:03:54;92275.69;;;7.07;82.90
84861;BME280;75116;42.644;23.274;2024-03-02T02:06:21;92272.84;;;7.20;81.82
84861;BME280;75116;42.644;23.274;2024-03-02T02:08:47;92263.41;;;7.12;82.65
84861;BME280;75116;42.644;23.274;2024-03-02T02:11:16;92280.31;;;7.34;79.35
84861;BME280;75116;42.644;23.274;2024-03-02T02:13:42;92290.50;;;6.56;81.91
84861;BME280;75116;42.644;23.274;2024-03-02T02:16:08;92277.91;;;6.63;84.90
84861;BME280;75116;42.644;23.274;2024-03-02T02:18:34;92286.91;;;6.90;81.92
84861;BME280;75116;42.644;23.274;2024-03-02T02:21:00;92281.38;;;6.38;82.19
84861;BME280;75116;42.644;23.274;2024-03-02T02:23:26;92278.25;;;6.53;82.18
84861;BME280;75116;42.644;23.274;2024-03-02T02:25:51;92281.03;;;6.48;82.97
84861;BME280;75116;42.644;23.274;2024-03-02T02:28:17;92281.66;;;5.86;83.31
84861;BME280;75116;42.644;23.274;2024-03-02T02:30:42;92289.00;;;6.04;84.49
84861;BME280;75116;42.644;23.274;2024-03-02T02:33:08;92268.91;;;5.60;85.40
84861;BME280;75116;42.644;23.274;2024-03-02T02:35:35;92277.75;;;5.41;87.19
84861;BME280;75116;42.644;23.274;2024-03-02T02:38:01;92262.28;;;5.59;85.40
84861;BME280;75116;42.644;23.274;2024-03-02T02:40:28;92288.91;;;5.37;88.11
84861;BME280;75116;42.644;23.274;2024-03-02T02:42:57;92271.56;;;5.42;87.10
84861;BME280;75116;42.644;23.274;2024-03-02T02:45:23;92256.13;;;5.42;87.69
84861;BME280;75116;42.644;23.274;2024-03-02T02:47:48;92279.56;;;5.41;87.96
84861;BME280;75116;42.644;23.274;2024-03-02T02:50:14;92286.09;;;5.68;88.59
84861;BME280;75116;42.644;23.274;2024-03-02T02:52:41;92283.53;;;5.68;87.05
84861;BME280;75116;42.644;23.274;2024-03-02T02:55:09;92280.94;;;5.77;87.83
84861;BME280;75116;42.644;23.274;2024-03-02T02:57:35;92288.91;;;5.92;85.08
84861;BME280;75116;42.644;23.274;2024-03-02T03:00:05;92288.44;;;5.99;85.15
84861;BME280;75116;42.644;23.274;2024-03-02T03:02:38;92284.66;;;5.50;87.66
84861;BME280;75116;42.644;23.274;2024-03-02T03:05:05;92279.16;;;5.22;88.85
84861;BME280;75116;42.644;23.274;2024-03-02T03:07:31;92278.72;;;5.11;89.48
84861;BME280;75116;42.644;23.274;2024-03-02T03:09:58;92282.53;;;5.05;89.74
84861;BME280;75116;42.644;23.274;2024-03-02T03:12:23;92284.16;;;5.01;90.63
84861;BME280;75116;42.644;23.274;2024-03-02T03:14:49;92280.53;;;5.02;90.82
84861;BME280;75116;42.644;23.274;2024-03-02T03:17:14;92276.63;;;4.96;90.10
84861;BME280;75116;42.644;23.274;2024-03-02T03:19:40;92279.19;;;4.96;90.11
84861;BME280;75116;42.644;23.274;2024-03-02T03:22:05;92278.72;;;5.02;89.97
84861;BME280;75116;42.644;23.274;2024-03-02T03:24:31;92278.84;;;5.14;89.43
84861;BME280;75116;42.644;23.274;2024-03-02T03:26:58;92271.47;;;5.13;90.24
84861;BME280;75116;42.644;23.274;2024-03-02T03:29:23;92278.63;;;5.45;89.72
84861;BME280;75116;42.644;23.274;2024-03-02T03:31:49;92281.38;;;5.79;88.29
84861;BME280;75116;42.644;23.274;2024-03-02T03:34:14;92284.91;;;6.03;86.17
84861;BME280;75116;42.644;23.274;2024-03-02T03:36:41;92283.38;;;6.11;86.09
84861;BME280;75116;42.644;23.274;2024-03-02T03:39:07;92280.00;;;5.90;87.62
84861;BME280;75116;42.644;23.274;2024-03-02T03:41:32;92283.53;;;6.06;86.87
84861;BME280;75116;42.644;23.274;2024-03-02T03:43:58;92282.16;;;6.38;85.65
84861;BME280;75116;42.644;23.274;2024-03-02T03:46:24;92285.59;;;5.83;86.76
84861;BME280;75116;42.644;23.274;2024-03-02T03:48:49;92282.88;;;5.41;89.53
84861;BME280;75116;42.644;23.274;2024-03-02T03:51:15;92281.72;;;6.07;89.78
84861;BME280;75116;42.644;23.274;2024-03-02T03:53:40;92289.44;;;5.22;89.97
84861;BME280;75116;42.644;23.274;2024-03-02T03:56:06;92282.50;;;4.96;92.09
84861;BME280;75116;42.644;23.274;2024-03-02T03:58:31;92280.19;;;5.29;92.08
84861;BME280;75116;42.644;23.274;2024-03-02T04:00:57;92282.16;;;5.70;91.08
84861;BME280;75116;42.644;23.274;2024-03-02T04:03:22;92273.50;;;5.84;89.59
84861;BME280;75116;42.644;23.274;2024-03-02T04:05:48;92277.22;;;6.24;88.54
84861;BME280;75116;42.644;23.274;2024-03-02T04:08:13;92285.34;;;6.56;87.58
84861;BME280;75116;42.644;23.274;2024-03-02T04:10:39;92282.53;;;6.70;86.59
84861;BME280;75116;42.644;23.274;2024-03-02T04:13:05;92285.22;;;6.73;85.94
84861;BME280;75116;42.644;23.274;2024-03-02T04:15:31;92269.78;;;6.73;84.44
84861;BME280;75116;42.644;23.274;2024-03-02T04:17:57;92278.44;;;6.89;83.25
84861;BME280;75116;42.644;23.274;2024-03-02T04:20:22;92267.28;;;6.64;82.84
84861;BME280;75116;42.644;23.274;2024-03-02T04:22:48;92280.19;;;6.77;84.17
84861;BME280;75116;42.644;23.274;2024-03-02T04:25:14;92273.59;;;6.88;84.60
84861;BME280;75116;42.644;23.274;2024-03-02T04:27:39;92278.72;;;7.09;82.96
84861;BME280;75116;42.644;23.274;2024-03-02T04:30:05;92267.28;;;7.18;82.55
84861;BME280;75116;42.644;23.274;2024-03-02T04:32:31;92287.28;;;7.34;83.08
84861;BME280;75116;42.644;23.274;2024-03-02T04:34:57;92282.03;;;7.42;82.67
84861;BME280;75116;42.644;23.274;2024-03-02T04:37:22;92279.66;;;7.37;80.48
84861;BME280;75116;42.644;23.274;2024-03-02T04:39:48;92272.88;;;7.33;81.30
84861;BME280;75116;42.644;23.274;2024-03-02T04:42:14;92287.38;;;7.37;80.89
84861;BME280;75116;42.644;23.274;2024-03-02T04:44:39;92282.13;;;7.34;81.59
84861;BME280;75116;42.644;23.274;2024-03-02T04:47:05;92288.13;;;7.38;82.08
84861;BME280;75116;42.644;23.274;2024-03-02T04:49:30;92290.81;;;7.29;80.76
84861;BME280;75116;42.644;23.274;2024-03-02T04:51:56;92283.09;;;7.29;82.61
84861;BME280;75116;42.644;23.274;2024-03-02T04:54:22;92296.94;;;7.04;82.26
84861;BME280;75116;42.644;23.274;2024-03-02T04:56:47;92301.19;;;5.78;86.76
84861;BME280;75116;42.644;23.274;2024-03-02T04:59:19;92297.06;;;5.86;87.20
84861;BME280;75116;42.644;23.274;2024-03-02T05:01:45;92298.13;;;5.47;89.29
84861;BME280;75116;42.644;23.274;2024-03-02T05:04:11;92293.88;;;5.97;89.85
84861;BME280;75116;42.644;23.274;2024-03-02T05:06:40;92301.84;;;6.34;88.02
84861;BME280;75116;42.644;23.274;2024-03-02T05:09:06;92290.34;;;6.61;86.97
84861;BME280;75116;42.644;23.274;2024-03-02T05:11:32;92297.09;;;6.65;87.23
84861;BME280;75116;42.644;23.274;2024-03-02T05:14:04;92295.47;;;6.82;86.69
84861;BME280;75116;42.644;23.274;2024-03-02T05:16:33;92300.91;;;7.01;85.49
84861;BME280;75116;42.644;23.274;2024-03-02T05:18:59;92298.56;;;7.08;85.54
84861;BME280;75116;42.644;23.274;2024-03-02T05:21:24;92305.72;;;7.23;83.54
84861;BME280;75116;42.644;23.274;2024-03-02T05:23:50;92299.41;;;7.33;83.58
84861;BME280;75116;42.644;23.274;2024-03-02T05:26:15;92309.19;;;7.40;84.05
84861;BME280;75116;42.644;23.274;2024-03-02T05:28:42;92307.00;;;6.55;83.60
84861;BME280;75116;42.644;23.274;2024-03-02T05:31:10;92314.50;;;5.80;89.61
84861;BME280;75116;42.644;23.274;2024-03-02T05:33:39;92319.75;;;5.37;92.16
84861;BME280;75116;42.644;23.274;2024-03-02T05:36:05;92311.78;;;5.77;91.05
84861;BME280;75116;42.644;23.274;2024-03-02T05:38:32;92309.22;;;5.77;90.42
84861;BME280;75116;42.644;23.274;2024-03-02T05:40:57;92329.34;;;5.66;89.56
84861;BME280;75116;42.644;23.274;2024-03-02T05:43:23;92329.13;;;5.41;92.33
84861;BME280;75116;42.644;23.274;2024-03-02T05:45:48;92330.41;;;5.73;91.61
84861;BME280;75116;42.644;23.274;2024-03-02T05:48:14;92313.63;;;5.03;93.17
84861;BME280;75116;42.644;23.274;2024-03-02T05:50:40;92324.50;;;4.74;94.53
84861;BME280;75116;42.644;23.274;2024-03-02T05:53:05;92327.50;;;4.68;94.92
84861;BME280;75116;42.644;23.274;2024-03-02T05:55:31;92334.47;;;4.93;95.17
84861;BME280;75116;42.644;23.274;2024-03-02T05:57:56;92319.75;;;5.37;94.53
84861;BME280;75116;42.644;23.274;2024-03-02T06:00:31;92323.59;;;5.22;93.41
84861;BME280;75116;42.644;23.274;2024-03-02T06:02:57;92314.41;;;4.87;94.18
84861;BME280;75116;42.644;23.274;2024-03-02T06:05:23;92336.72;;;4.77;95.17
84861;BME280;75116;42.644;23.274;2024-03-02T06:07:49;92330.41;;;4.92;94.73
84861;BME280;75116;42.644;23.274;2024-03-02T06:10:14;92332.06;;;4.79;96.02
84861;BME280;75116;42.644;23.274;2024-03-02T06:12:40;92335.38;;;4.80;96.32
84861;BME280;75116;42.644;23.274;2024-03-02T06:15:06;92338.38;;;4.82;97.00
84861;BME280;75116;42.644;23.274;2024-03-02T06:17:32;92332.22;;;4.74;96.82
84861;BME280;75116;42.644;23.274;2024-03-02T06:19:57;92333.41;;;4.85;97.21
84861;BME280;75116;42.644;23.274;2024-03-02T06:22:23;92329.31;;;4.84;96.68
84861;BME280;75116;42.644;23.274;2024-03-02T06:24:50;92330.38;;;5.01;97.07
84861;BME280;75116;42.644;23.274;2024-03-02T06:27:16;92331.59;;;4.95;96.98
84861;BME280;75116;42.644;23.274;2024-03-02T06:29:42;92337.03;;;4.84;96.74
84861;BME280;75116;42.644;23.274;2024-03-02T06:32:07;92330.38;;;4.83;96.04
84861;BME280;75116;42.644;23.274;2024-03-02T06:34:33;92333.41;;;5.03;96.78
84861;BME280;75116;42.644;23.274;2024-03-02T06:36:58;92337.94;;;5.06;96.67
84861;BME280;75116;42.644;23.274;2024-03-02T06:39:24;92319.22;;;4.79;96.61
84861;BME280;75116;42.644;23.274;2024-03-02T06:41:51;92333.28;;;4.73;97.61
84861;BME280;75116;42.644;23.274;2024-03-02T06:44:17;92321.47;;;4.46;98.33
84861;BME280;75116;42.644;23.274;2024-03-02T06:46:42;92349.25;;;4.62;98.19
84861;BME280;75116;42.644;23.274;2024-03-02T06:49:08;92345.19;;;4.69;98.58
84861;BME280;75116;42.644;23.274;2024-03-02T06:51:36;92349.41;;;4.65;98.18
84861;BME280;75116;42.644;23.274;2024-03-02T06:54:01;92354.25;;;4.75;97.43
84861;BME280;75116;42.644;23.274;2024-03-02T06:56:27;92351.25;;;4.91;95.93
84861;BME280;75116;42.644;23.274;2024-03-02T06:58:52;92354.13;;;4.89;95.85
84861;BME280;75116;42.644;23.274;2024-03-02T07:01:18;92351.22;;;4.99;94.89
84861;BME280;75116;42.644;23.274;2024-03-02T07:03:45;92355.47;;;5.04;93.74
84861;BME280;75116;42.644;23.274;2024-03-02T07:06:11;92311.22;;;4.81;93.88
84861;BME280;75116;42.644;23.274;2024-03-02T07:08:37;92354.72;;;5.21;94.35
84861;BME280;75116;42.644;23.274;2024-03-02T07:11:02;92356.03;;;5.18;93.63
84861;BME280;75116;42.644;23.274;2024-03-02T07:13:28;92363.78;;;4.92;95.70
84861;BME280;75116;42.644;23.274;2024-03-02T07:15:53;92347.63;;;4.92;95.37
84861;BME280;75116;42.644;23.274;2024-03-02T07:18:25;92351.09;;;5.04;94.75
84861;BME280;75116;42.644;23.274;2024-03-02T07:20:50;92361.81;;;5.06;95.79
84861;BME280;75116;42.644;23.274;2024-03-02T07:23:16;92357.72;;;4.97;95.94
84861;BME280;75116;42.644;23.274;2024-03-02T07:25:41;92366.03;;;5.02;96.05
84861;BME280;75116;42.644;23.274;2024-03-02T07:28:07;92356.06;;;5.01;95.57
84861;BME280;75116;42.644;23.274;2024-03-02T07:30:33;92356.97;;;4.96;95.63
84861;BME280;75116;42.644;23.274;2024-03-02T07:32:59;92357.28;;;5.21;93.73
84861;BME280;75116;42.644;23.274;2024-03-02T07:35:25;92364.38;;;5.24;94.23
84861;BME280;75116;42.644;23.274;2024-03-02T07:37:53;92352.25;;;5.33;92.27
84861;BME280;75116;42.644;23.274;2024-03-02T07:40:19;92363.16;;;5.38;92.99
84861;BME280;75116;42.644;23.274;2024-03-02T07:42:45;92366.91;;;5.41;93.08
84861;BME280;75116;42.644;23.274;2024-03-02T07:45:11;92374.75;;;5.44;91.07
84861;BME280;75116;42.644;23.274;2024-03-02T07:47:36;92364.38;;;5.24;90.75
84861;BME280;75116;42.644;23.274;2024-03-02T07:50:02;92380.06;;;5.31;93.22
84861;BME280;75116;42.644;23.274;2024-03-02T07:52:28;92374.31;;;5.34;94.46
84861;BME280;75116;42.644;23.274;2024-03-02T07:54:54;92363.00;;;5.09;94.53
84861;BME280;75116;42.644;23.274;2024-03-02T07:57:20;92352.59;;;4.97;96.08
84861;BME280;75116;42.644;23.274;2024-03-02T07:59:46;92376.91;;;5.08;95.38
84861;BME280;75116;42.644;23.274;2024-03-02T08:02:12;92376.16;;;5.16;96.49
84861;BME280;75116;42.644;23.274;2024-03-02T08:04:38;92379.31;;;5.13;96.29
84861;BME280;75116;42.644;23.274;2024-03-02T08:07:04;92387.03;;;5.22;96.25
84861;BME280;75116;42.644;23.274;2024-03-02T08:09:29;92387.91;;;5.17;95.69
84861;BME280;75116;42.644;23.274;2024-03-02T08:11:55;92390.94;;;5.19;95.14
84861;BME280;75116;42.644;23.274;2024-03-02T08:14:23;92390.34;;;5.13;96.13
84861;BME280;75116;42.644;23.274;2024-03-02T08:16:48;92390.81;;;5.07;94.86
84861;BME280;75116;42.644;23.274;2024-03-02T08:19:14;92390.19;;;5.19;95.16
84861;BME280;75116;42.644;23.274;2024-03-02T08:21:40;92389.28;;;5.23;94.86
84861;BME280;75116;42.644;23.274;2024-03-02T08:24:05;92388.38;;;5.19;95.64
84861;BME280;75116;42.644;23.274;2024-03-02T08:26:31;92390.19;;;5.27;95.71
84861;BME280;75116;42.644;23.274;2024-03-02T08:29:00;92394.44;;;5.23;95.79
84861;BME280;75116;42.644;23.274;2024-03-02T08:31:27;92384.75;;;5.11;95.69
84861;BME280;75116;42.644;23.274;2024-03-02T08:33:53;92387.19;;;5.25;95.42
84861;BME280;75116;42.644;23.274;2024-03-02T08:36:18;92388.84;;;5.21;95.80
84861;BME280;75116;42.644;23.274;2024-03-02T08:38:45;92390.19;;;5.27;96.72
84861;BME280;75116;42.644;23.274;2024-03-02T08:41:10;92381.56;;;5.40;96.18
84861;BME280;75116;42.644;23.274;2024-03-02T08:43:38;92385.50;;;5.29;95.91
84861;BME280;75116;42.644;23.274;2024-03-02T08:46:05;92393.19;;;5.38;95.17
84861;BME280;75116;42.644;23.274;2024-03-02T08:48:31;92392.50;;;6.01;95.07
84861;BME280;75116;42.644;23.274;2024-03-02T08:50:56;92390.78;;;6.14;92.55
84861;BME280;75116;42.644;23.274;2024-03-02T08:53:22;92390.34;;;6.03;89.68
84861;BME280;75116;42.644;23.274;2024-03-02T08:55:47;92393.13;;;5.72;91.46
84861;BME280;75116;42.644;23.274;2024-03-02T08:58:13;92372.44;;;5.78;89.85
84861;BME280;75116;42.644;23.274;2024-03-02T09:00:39;92369.09;;;5.68;91.25
84861;BME280;75116;42.644;23.274;2024-03-02T09:03:05;92388.25;;;5.88;91.33
84861;BME280;75116;42.644;23.274;2024-03-02T09:05:31;92389.16;;;6.01;89.77
84861;BME280;75116;42.644;23.274;2024-03-02T09:07:56;92396.81;;;6.18;91.56
84861;BME280;75116;42.644;23.274;2024-03-02T09:10:22;92395.53;;;6.33;89.02
84861;BME280;75116;42.644;23.274;2024-03-02T09:12:47;92403.22;;;6.42;91.62
84861;BME280;75116;42.644;23.274;2024-03-02T09:15:13;92403.50;;;6.49;86.70
84861;BME280;75116;42.644;23.274;2024-03-02T09:17:38;92399.97;;;6.24;90.90
84861;BME280;75116;42.644;23.274;2024-03-02T09:20:05;92407.00;;;5.89;90.29
84861;BME280;75116;42.644;23.274;2024-03-02T09:22:30;92408.13;;;5.70;92.21
84861;BME280;75116;42.644;23.274;2024-03-02T09:24:57;92417.06;;;5.73;93.27
84861;BME280;75116;42.644;23.274;2024-03-02T09:27:23;92415.81;;;5.79;92.77
84861;BME280;75116;42.644;23.274;2024-03-02T09:29:49;92416.34;;;6.19;91.52
84861;BME280;75116;42.644;23.274;2024-03-02T09:32:15;92417.66;;;6.63;88.10
84861;BME280;75116;42.644;23.274;2024-03-02T09:34:41;92409.66;;;6.27;89.11
84861;BME280;75116;42.644;23.274;2024-03-02T09:37:07;92416.84;;;6.04;92.47
84861;BME280;75116;42.644;23.274;2024-03-02T09:39:33;92417.91;;;6.03;91.88
84861;BME280;75116;42.644;23.274;2024-03-02T09:42:01;92414.19;;;6.21;91.13
84861;BME280;75116;42.644;23.274;2024-03-02T09:44:29;92417.88;;;6.12;90.51
84861;BME280;75116;42.644;23.274;2024-03-02T09:46:55;92408.66;;;6.02;92.71
84861;BME280;75116;42.644;23.274;2024-03-02T09:49:22;92415.44;;;6.15;92.41
84861;BME280;75116;42.644;23.274;2024-03-02T09:51:49;92420.47;;;6.12;91.18
84861;BME280;75116;42.644;23.274;2024-03-02T09:54:17;92417.31;;;6.35;90.42
84861;BME280;75116;42.644;23.274;2024-03-02T09:56:44;92424.34;;;6.18;90.87
84861;BME280;75116;42.644;23.274;2024-03-02T09:59:09;92403.84;;;6.00;90.63
84861;BME280;75116;42.644;23.274;2024-03-02T10:01:35;92408.31;;;6.21;89.21
84861;BME280;75116;42.644;23.274;2024-03-02T10:04:01;92420.78;;;6.78;88.82
84861;BME280;75116;42.644;23.274;2024-03-02T10:06:29;92421.06;;;6.47;88.78
84861;BME280;75116;42.644;23.274;2024-03-02T10:08:55;92420.69;;;6.65;89.77
84861;BME280;75116;42.644;23.274;2024-03-02T10:11:29;92423.72;;;7.09;88.52
84861;BME280;75116;42.644;23.274;2024-03-02T10:14:09;92415.28;;;7.63;85.97
84861;BME280;75116;42.644;23.274;2024-03-02T10:16:44;92416.44;;;7.98;85.07
84861;BME280;75116;42.644;23.274;2024-03-02T10:19:23;92413.81;;;8.31;82.18
84861;BME280;75116;42.644;23.274;2024-03-02T10:21:53;92410.84;;;8.41;81.82
84861;BME280;75116;42.644;23.274;2024-03-02T10:24:22;92407.72;;;8.48;81.17
84861;BME280;75116;42.644;23.274;2024-03-02T10:26:48;92421.59;;;8.43;80.09
84861;BME280;75116;42.644;23.274;2024-03-02T10:29:14;92416.44;;;8.43;80.01
84861;BME280;75116;42.644;23.274;2024-03-02T10:31:42;92407.06;;;8.63;81.31
84861;BME280;75116;42.644;23.274;2024-03-02T10:34:10;92413.00;;;8.52;77.81
84861;BME280;75116;42.644;23.274;2024-03-02T10:36:36;92410.22;;;8.57;81.05
84861;BME280;75116;42.644;23.274;2024-03-02T10:39:06;92406.31;;;8.63;79.21
84861;BME280;75116;42.644;23.274;2024-03-02T10:41:37;92416.59;;;8.26;79.72
84861;BME280;75116;42.644;23.274;2024-03-02T10:44:04;92413.31;;;8.50;80.29
84861;BME280;75116;42.644;23.274;2024-03-02T10:46:31;92397.72;;;8.34;82.07
84861;BME280;75116;42.644;23.274;2024-03-02T10:48:57;92403.69;;;8.14;83.14
84861;BME280;75116;42.644;23.274;2024-03-02T10:51:27;92407.13;;;8.06;83.52
84861;BME280;75116;42.644;23.274;2024-03-02T10:53:54;92411.38;;;6.73;84.87
84861;BME280;75116;42.644;23.274;2024-03-02T10:56:31;92408.06;;;6.43;89.26
84861;BME280;75116;42.644;23.274;2024-03-02T11:01:59;92415.75;;;6.14;94.25
84861;BME280;75116;42.644;23.274;2024-03-02T11:04:26;92384.19;;;5.87;92.54
84861;BME280;75116;42.644;23.274;2024-03-02T11:06:56;92389.22;;;5.75;93.79
84861;BME280;75116;42.644;23.274;2024-03-02T11:09:27;92402.66;;;5.81;95.00
84861;BME280;75116;42.644;23.274;2024-03-02T11:14:52;92397.47;;;5.89;95.38
84861;BME280;75116;42.644;23.274;2024-03-02T11:17:18;92396.13;;;6.00;94.89
84861;BME280;75116;42.644;23.274;2024-03-02T11:19:44;92387.16;;;6.07;93.45
84861;BME280;75116;42.644;23.274;2024-03-02T11:22:12;92394.78;;;6.32;92.04
84861;BME280;75116;42.644;23.274;2024-03-02T11:24:37;92383.31;;;5.74;93.90
84861;BME280;75116;42.644;23.274;2024-03-02T11:27:06;92393.25;;;5.85;94.11
84861;BME280;75116;42.644;23.274;2024-03-02T11:32:17;92391.72;;;6.01;93.41
84861;BME280;75116;42.644;23.274;2024-03-02T11:34:45;92388.09;;;6.02;94.21
84861;BME280;75116;42.644;23.274;2024-03-02T11:37:13;92395.25;;;5.79;94.68
84861;BME280;75116;42.644;23.274;2024-03-02T11:39:43;92387.53;;;5.79;94.49
84861;BME280;75116;42.644;23.274;2024-03-02T11:42:11;92392.78;;;6.09;92.46
84861;BME280;75116;42.644;23.274;2024-03-02T11:44:37;92391.50;;;6.23;91.04
84861;BME280;75116;42.644;23.274;2024-03-02T11:47:07;92389.47;;;6.38;92.04
84861;BME280;75116;42.644;23.274;2024-03-02T11:49:37;92399.66;;;6.55;90.83
84861;BME280;75116;42.644;23.274;2024-03-02T11:52:04;92399.84;;;6.50;90.82
84861;BME280;75116;42.644;23.274;2024-03-02T11:54:32;92393.66;;;6.13;92.47
84861;BME280;75116;42.644;23.274;2024-03-02T11:57:02;92393.44;;;6.64;89.47
84861;BME280;75116;42.644;23.274;2024-03-02T11:59:29;92371.94;;;6.60;91.84
84861;BME280;75116;42.644;23.274;2024-03-02T12:01:55;92370.31;;;6.77;90.29
84861;BME280;75116;42.644;23.274;2024-03-02T12:04:24;92389.28;;;6.93;87.95
84861;BME280;75116;42.644;23.274;2024-03-02T12:06:59;92394.81;;;6.83;89.19
84861;BME280;75116;42.644;23.274;2024-03-02T12:09:26;92387.06;;;6.32;90.93
84861;BME280;75116;42.644;23.274;2024-03-02T12:12:09;92395.66;;;6.45;91.05
84861;BME280;75116;42.644;23.274;2024-03-02T12:14:37;92391.63;;;6.56;91.66
84861;BME280;75116;42.644;23.274;2024-03-02T12:17:04;92396.41;;;6.46;89.97
84861;BME280;75116;42.644;23.274;2024-03-02T12:19:31;92390.94;;;6.98;89.98
84861;BME280;75116;42.644;23.274;2024-03-02T12:21:57;92375.53;;;7.10;88.21
84861;BME280;75116;42.644;23.274;2024-03-02T12:24:24;92399.31;;;7.15;86.70
84861;BME280;75116;42.644;23.274;2024-03-02T12:26:50;92392.75;;;7.18;86.80
84861;BME280;75116;42.644;23.274;2024-03-02T12:29:18;92384.66;;;7.61;85.32
84861;BME280;75116;42.644;23.274;2024-03-02T12:31:44;92387.94;;;7.82;86.09
84861;BME280;75116;42.644;23.274;2024-03-02T12:34:14;92379.72;;;8.01;84.14
84861;BME280;75116;42.644;23.274;2024-03-02T12:36:42;92384.34;;;8.32;80.76
84861;BME280;75116;42.644;23.274;2024-03-02T12:39:09;92385.84;;;8.09;82.47
84861;BME280;75116;42.644;23.274;2024-03-02T12:41:37;92384.56;;;8.27;81.59
84861;BME280;75116;42.644;23.274;2024-03-02T12:44:04;92382.63;;;8.24;82.72
84861;BME280;75116;42.644;23.274;2024-03-02T12:46:30;92397.56;;;7.40;86.41
84861;BME280;75116;42.644;23.274;2024-03-02T12:48:56;92391.13;;;7.34;87.23
84861;BME280;75116;42.644;23.274;2024-03-02T12:51:21;92391.72;;;7.52;88.02
84861;BME280;75116;42.644;23.274;2024-03-02T12:53:53;92396.94;;;7.64;85.59
84861;BME280;75116;42.644;23.274;2024-03-02T12:56:19;92398.31;;;7.41;86.72
84861;BME280;75116;42.644;23.274;2024-03-02T12:58:45;92393.72;;;7.13;87.72
84861;BME280;75116;42.644;23.274;2024-03-02T13:01:11;92401.41;;;6.72;88.31
84861;BME280;75116;42.644;23.274;2024-03-02T13:03:38;92401.03;;;6.82;89.88
84861;BME280;75116;42.644;23.274;2024-03-02T13:06:05;92399.44;;;6.39;90.68
84861;BME280;75116;42.644;23.274;2024-03-02T13:08:31;92382.13;;;6.19;90.77
84861;BME280;75116;42.644;23.274;2024-03-02T13:10:57;92400.84;;;6.66;92.13